sensor_id;sensor_type;location;lat;lon;timestamp;pressure;altitude;pressure_sealevel;temperature;humidity
40954;BME280;26686;50.130;8.710;2024-01-30T00:01:40;101517.13;;;7.65;65.61
40954;BME280;26686;50.130;8.710;2024-01-30T00:06:41;101521.22;;;7.72;65.89
40954;BME280;26686;50.130;8.710;2024-01-30T00:11:43;101511.34;;;7.57;65.51
40954;BME280;26686;50.130;8.710;2024-01-30T00:16:45;101466.03;;;7.25;66.02
40954;BME280;26686;50.130;8.710;2024-01-30T00:21:46;101511.13;;;7.42;66.87
40954;BME280;26686;50.130;8.710;2024-01-30T00:26:48;101500.19;;;7.31;66.64
40954;BME280;26686;50.130;8.710;2024-01-30T00:31:49;101517.22;;;7.44;66.64
40954;BME280;26686;50.130;8.710;2024-01-30T00:36:51;101509.84;;;7.32;66.27
40954;BME280;26686;50.130;8.710;2024-01-30T00:41:52;101510.50;;;7.37;66.44
40954;BME280;26686;50.130;8.710;2024-01-30T00:46:54;101513.16;;;7.37;65.95
40954;BME280;26686;50.130;8.710;2024-01-30T00:51:55;101509.91;;;7.31;65.91
40954;BME280;26686;50.130;8.710;2024-01-30T00:56:56;101517.94;;;7.29;66.12
40954;BME280;26686;50.130;8.710;2024-01-30T01:01:58;101513.06;;;7.20;66.96
40954;BME280;26686;50.130;8.710;2024-01-30T01:06:59;101521.88;;;7.20;66.77
40954;BME280;26686;50.130;8.710;2024-01-30T01:12:02;101523.03;;;7.15;66.65
40954;BME280;26686;50.130;8.710;2024-01-30T01:17:04;101524.09;;;7.11;66.16
40954;BME280;26686;50.130;8.710;2024-01-30T01:22:05;101517.34;;;7.03;66.38
40954;BME280;26686;50.130;8.710;2024-01-30T01:27:07;101519.56;;;6.94;66.86
40954;BME280;26686;50.130;8.710;2024-01-30T01:32:09;101505.25;;;6.79;66.86
40954;BME280;26686;50.130;8.710;2024-01-30T01:37:10;101499.69;;;6.64;67.34
40954;BME280;26686;50.130;8.710;2024-01-30T01:42:11;101516.88;;;6.75;68.10
40954;BME280;26686;50.130;8.710;2024-01-30T01:47:14;101516.47;;;6.63;67.96
40954;BME280;26686;50.130;8.710;2024-01-30T01:52:16;101515.97;;;6.55;68.17
40954;BME280;26686;50.130;8.710;2024-01-30T01:57:18;101504.63;;;6.51;68.13
40954;BME280;26686;50.130;8.710;2024-01-30T02:02:20;101499.34;;;6.51;68.34
40954;BME280;26686;50.130;8.710;2024-01-30T02:07:24;101490.44;;;6.54;68.74
40954;BME280;26686;50.130;8.710;2024-01-30T02:12:26;101493.88;;;6.56;68.09
40954;BME280;26686;50.130;8.710;2024-01-30T02:17:27;101498.91;;;6.62;68.29
40954;BME280;26686;50.130;8.710;2024-01-30T02:22:29;101490.03;;;6.63;68.57
40954;BME280;26686;50.130;8.710;2024-01-30T02:27:31;101485.00;;;6.57;68.20
40954;BME280;26686;50.130;8.710;2024-01-30T02:32:33;101489.31;;;6.60;68.10
40954;BME280;26686;50.130;8.710;2024-01-30T02:37:37;101497.38;;;6.57;67.69
40954;BME280;26686;50.130;8.710;2024-01-30T02:42:39;101435.44;;;6.21;67.68
40954;BME280;26686;50.130;8.710;2024-01-30T02:47:40;101496.78;;;6.50;67.91
40954;BME280;26686;50.130;8.710;2024-01-30T02:52:42;101485.47;;;6.46;67.78
40954;BME280;26686;50.130;8.710;2024-01-30T02:57:45;101496.69;;;6.51;67.87
40954;BME280;26686;50.130;8.710;2024-01-30T03:02:47;101491.47;;;6.50;67.63
40954;BME280;26686;50.130;8.710;2024-01-30T03:07:49;101489.25;;;6.41;67.57
40954;BME280;26686;50.130;8.710;2024-01-30T03:12:51;101490.84;;;6.45;68.05
40954;BME280;26686;50.130;8.710;2024-01-30T03:17:53;101492.69;;;6.43;68.24
40954;BME280;26686;50.130;8.710;2024-01-30T03:22:55;101488.31;;;6.42;68.25
40954;BME280;26686;50.130;8.710;2024-01-30T03:27:57;101496.41;;;6.39;68.35
40954;BME280;26686;50.130;8.710;2024-01-30T03:32:59;101493.19;;;6.30;68.26
40954;BME280;26686;50.130;8.710;2024-01-30T03:38:00;101487.47;;;6.21;68.38
40954;BME280;26686;50.130;8.710;2024-01-30T03:43:04;101492.81;;;6.19;68.15
40954;BME280;26686;50.130;8.710;2024-01-30T03:48:07;101493.94;;;6.13;68.62
40954;BME280;26686;50.130;8.710;2024-01-30T03:53:08;101494.63;;;6.18;68.75
40954;BME280;26686;50.130;8.710;2024-01-30T03:58:10;101494.00;;;6.12;68.72
40954;BME280;26686;50.130;8.710;2024-01-30T04:03:11;101497.81;;;6.05;68.82
40954;BME280;26686;50.130;8.710;2024-01-30T04:08:13;101487.09;;;6.08;68.86
40954;BME280;26686;50.130;8.710;2024-01-30T04:13:15;101491.97;;;5.96;68.38
40954;BME280;26686;50.130;8.710;2024-01-30T04:18:18;101487.34;;;5.79;68.70
40954;BME280;26686;50.130;8.710;2024-01-30T04:23:20;101483.00;;;5.78;69.30
40954;BME280;26686;50.130;8.710;2024-01-30T04:28:23;101478.50;;;5.80;70.34
40954;BME280;26686;50.130;8.710;2024-01-30T04:33:25;101478.19;;;5.88;69.50
40954;BME280;26686;50.130;8.710;2024-01-30T04:38:26;101469.16;;;5.94;69.82
40954;BME280;26686;50.130;8.710;2024-01-30T04:43:29;101484.16;;;5.93;69.87
40954;BME280;26686;50.130;8.710;2024-01-30T04:48:30;101481.09;;;5.82;69.88
40954;BME280;26686;50.130;8.710;2024-01-30T04:53:32;101489.84;;;5.84;69.43
40954;BME280;26686;50.130;8.710;2024-01-30T04:58:33;101492.56;;;5.81;69.76
40954;BME280;26686;50.130;8.710;2024-01-30T05:03:35;101507.75;;;5.76;69.38
40954;BME280;26686;50.130;8.710;2024-01-30T05:08:37;101505.19;;;5.74;69.27
40954;BME280;26686;50.130;8.710;2024-01-30T05:13:38;101502.72;;;5.70;68.94
40954;BME280;26686;50.130;8.710;2024-01-30T05:18:39;101509.75;;;5.71;68.73
40954;BME280;26686;50.130;8.710;2024-01-30T05:23:41;101506.53;;;5.62;68.61
40954;BME280;26686;50.130;8.710;2024-01-30T05:28:43;101499.78;;;5.55;69.24
40954;BME280;26686;50.130;8.710;2024-01-30T05:33:47;101495.94;;;5.40;68.61
40954;BME280;26686;50.130;8.710;2024-01-30T05:38:50;101517.59;;;5.50;69.13
40954;BME280;26686;50.130;8.710;2024-01-30T05:43:52;101506.31;;;5.45;69.22
40954;BME280;26686;50.130;8.710;2024-01-30T05:48:53;101501.09;;;5.43;69.62
40954;BME280;26686;50.130;8.710;2024-01-30T05:53:55;101512.31;;;5.50;69.40
40954;BME280;26686;50.130;8.710;2024-01-30T05:58:56;101514.03;;;5.51;69.29
40954;BME280;26686;50.130;8.710;2024-01-30T06:03:58;101505.91;;;5.34;68.96
40954;BME280;26686;50.130;8.710;2024-01-30T06:08:59;101509.44;;;5.32;69.93
40954;BME280;26686;50.130;8.710;2024-01-30T06:14:01;101516.47;;;5.34;70.25
40954;BME280;26686;50.130;8.710;2024-01-30T06:19:03;101516.34;;;5.37;69.77
40954;BME280;26686;50.130;8.710;2024-01-30T06:24:05;101516.09;;;5.43;70.13
40954;BME280;26686;50.130;8.710;2024-01-30T06:29:08;101513.75;;;5.35;70.04
40954;BME280;26686;50.130;8.710;2024-01-30T06:34:09;101513.53;;;5.41;71.00
40954;BME280;26686;50.130;8.710;2024-01-30T06:39:15;101516.09;;;5.43;70.33
40954;BME280;26686;50.130;8.710;2024-01-30T06:44:16;101511.06;;;5.37;70.61
40954;BME280;26686;50.130;8.710;2024-01-30T06:49:18;101509.22;;;5.39;70.86
40954;BME280;26686;50.130;8.710;2024-01-30T06:54:20;101477.63;;;5.13;70.87
40954;BME280;26686;50.130;8.710;2024-01-30T06:59:21;101524.94;;;5.42;71.02
40954;BME280;26686;50.130;8.710;2024-01-30T07:04:22;101519.59;;;5.43;71.28
40954;BME280;26686;50.130;8.710;2024-01-30T07:09:24;101519.09;;;5.34;70.68
40954;BME280;26686;50.130;8.710;2024-01-30T07:14:25;101519.94;;;5.12;71.32
40954;BME280;26686;50.130;8.710;2024-01-30T07:19:27;101520.94;;;5.08;72.13
40954;BME280;26686;50.130;8.710;2024-01-30T07:24:28;101514.72;;;5.10;72.83
40954;BME280;26686;50.130;8.710;2024-01-30T07:29:30;101512.34;;;5.03;72.39
40954;BME280;26686;50.130;8.710;2024-01-30T07:34:34;101517.41;;;5.09;72.25
40954;BME280;26686;50.130;8.710;2024-01-30T07:39:50;101518.75;;;5.19;72.65
40954;BME280;26686;50.130;8.710;2024-01-30T07:44:52;101524.84;;;5.21;72.42
40954;BME280;26686;50.130;8.710;2024-01-30T07:49:55;101531.16;;;5.17;72.34
40954;BME280;26686;50.130;8.710;2024-01-30T07:54:56;101524.63;;;5.04;72.87
40954;BME280;26686;50.130;8.710;2024-01-30T07:59:58;101531.16;;;5.17;73.21
40954;BME280;26686;50.130;8.710;2024-01-30T08:04:59;101531.06;;;5.20;73.20
40954;BME280;26686;50.130;8.710;2024-01-30T08:10:01;101519.56;;;5.21;73.15
40954;BME280;26686;50.130;8.710;2024-01-30T08:15:03;101542.25;;;5.27;73.24
40954;BME280;26686;50.130;8.710;2024-01-30T08:20:05;101544.72;;;5.31;73.22
40954;BME280;26686;50.130;8.710;2024-01-30T08:25:08;101548.28;;;5.30;73.94
40954;BME280;26686;50.130;8.710;2024-01-30T08:30:11;101555.34;;;5.52;73.72
40954;BME280;26686;50.130;8.710;2024-01-30T08:35:12;101548.94;;;5.59;74.41
40954;BME280;26686;50.130;8.710;2024-01-30T08:40:16;101550.91;;;5.76;75.59
40954;BME280;26686;50.130;8.710;2024-01-30T08:45:18;101547.59;;;5.93;76.44
40954;BME280;26686;50.130;8.710;2024-01-30T08:50:20;101536.75;;;6.01;77.08
40954;BME280;26686;50.130;8.710;2024-01-30T08:55:22;101548.84;;;6.07;77.99
40954;BME280;26686;50.130;8.710;2024-01-30T09:00:26;101548.53;;;6.14;77.91
40954;BME280;26686;50.130;8.710;2024-01-30T09:05:29;101557.31;;;6.15;77.94
40954;BME280;26686;50.130;8.710;2024-01-30T09:10:31;101550.31;;;6.14;78.39
40954;BME280;26686;50.130;8.710;2024-01-30T09:15:32;101554.47;;;6.19;78.98
40954;BME280;26686;50.130;8.710;2024-01-30T09:20:34;101552.78;;;6.18;78.84
40954;BME280;26686;50.130;8.710;2024-01-30T09:25:35;101556.94;;;6.24;78.52
40954;BME280;26686;50.130;8.710;2024-01-30T09:30:37;101565.94;;;6.20;78.88
40954;BME280;26686;50.130;8.710;2024-01-30T09:35:38;101562.09;;;6.27;79.13
40954;BME280;26686;50.130;8.710;2024-01-30T09:40:39;101565.56;;;6.29;79.49
40954;BME280;26686;50.130;8.710;2024-01-30T09:45:44;101569.69;;;6.35;78.77
40954;BME280;26686;50.130;8.710;2024-01-30T09:50:46;101562.66;;;6.35;79.07
40954;BME280;26686;50.130;8.710;2024-01-30T09:55:50;101560.94;;;6.55;78.09
40954;BME280;26686;50.130;8.710;2024-01-30T10:00:54;101546.66;;;6.59;78.38
40954;BME280;26686;50.130;8.710;2024-01-30T10:06:00;101566.03;;;6.80;77.63
40954;BME280;26686;50.130;8.710;2024-01-30T10:11:02;101560.69;;;6.82;76.80
40954;BME280;26686;50.130;8.710;2024-01-30T10:16:06;101558.31;;;6.76;76.78
40954;BME280;26686;50.130;8.710;2024-01-30T10:21:08;101557.09;;;6.83;77.26
40954;BME280;26686;50.130;8.710;2024-01-30T10:26:10;101552.13;;;6.96;76.72
40954;BME280;26686;50.130;8.710;2024-01-30T10:31:16;101547.59;;;6.79;77.02
40954;BME280;26686;50.130;8.710;2024-01-30T10:36:18;101547.75;;;6.95;77.06
40954;BME280;26686;50.130;8.710;2024-01-30T10:41:26;101544.28;;;7.13;76.19
40954;BME280;26686;50.130;8.710;2024-01-30T10:46:30;101542.09;;;7.02;75.97
40954;BME280;26686;50.130;8.710;2024-01-30T10:51:34;101542.66;;;6.90;76.10
40954;BME280;26686;50.130;8.710;2024-01-30T10:56:37;101536.31;;;6.94;76.34
40954;BME280;26686;50.130;8.710;2024-01-30T11:01:40;101540.34;;;7.03;75.98
40954;BME280;26686;50.130;8.710;2024-01-30T11:06:42;101540.78;;;7.51;74.83
40954;BME280;26686;50.130;8.710;2024-01-30T11:11:57;101551.19;;;7.92;72.58
40954;BME280;26686;50.130;8.710;2024-01-30T11:17:03;101538.97;;;8.07;72.11
40954;BME280;26686;50.130;8.710;2024-01-30T11:22:08;101551.28;;;8.44;70.29
40954;BME280;26686;50.130;8.710;2024-01-30T11:27:14;101540.19;;;8.71;69.97
40954;BME280;26686;50.130;8.710;2024-01-30T11:32:22;101534.47;;;9.12;66.85
40954;BME280;26686;50.130;8.710;2024-01-30T11:37:25;101518.38;;;9.15;67.12
40954;BME280;26686;50.130;8.710;2024-01-30T11:42:28;101525.75;;;9.74;65.78
40954;BME280;26686;50.130;8.710;2024-01-30T11:47:31;101528.06;;;10.26;63.49
40954;BME280;26686;50.130;8.710;2024-01-30T11:52:33;101512.03;;;10.73;61.58
40954;BME280;26686;50.130;8.710;2024-01-30T11:57:35;101500.44;;;10.74;61.52
40954;BME280;26686;50.130;8.710;2024-01-30T12:02:38;101461.81;;;10.22;62.12
40954;BME280;26686;50.130;8.710;2024-01-30T12:07:39;101493.81;;;10.06;63.85
40954;BME280;26686;50.130;8.710;2024-01-30T12:12:44;101458.16;;;9.78;65.41
40954;BME280;26686;50.130;8.710;2024-01-30T12:17:47;101490.22;;;9.91;65.21
40954;BME280;26686;50.130;8.710;2024-01-30T12:22:49;101489.34;;;9.90;65.15
40954;BME280;26686;50.130;8.710;2024-01-30T12:27:51;101488.41;;;9.91;65.45
40954;BME280;26686;50.130;8.710;2024-01-30T12:32:54;101478.16;;;9.85;65.53
40954;BME280;26686;50.130;8.710;2024-01-30T12:37:55;101482.75;;;9.98;65.47
40954;BME280;26686;50.130;8.710;2024-01-30T12:42:58;101485.75;;;9.91;65.73
40954;BME280;26686;50.130;8.710;2024-01-30T12:47:59;101468.91;;;10.07;64.75
40954;BME280;26686;50.130;8.710;2024-01-30T12:53:01;101474.50;;;10.02;64.92
40954;BME280;26686;50.130;8.710;2024-01-30T12:58:05;101469.69;;;10.23;64.68
40954;BME280;26686;50.130;8.710;2024-01-30T13:03:07;101467.31;;;10.49;64.16
40954;BME280;26686;50.130;8.710;2024-01-30T13:08:09;101454.88;;;10.50;63.31
40954;BME280;26686;50.130;8.710;2024-01-30T13:13:11;101451.16;;;10.67;62.89
40954;BME280;26686;50.130;8.710;2024-01-30T13:18:21;101441.97;;;11.83;59.30
40954;BME280;26686;50.130;8.710;2024-01-30T13:23:22;101442.91;;;12.35;57.17
40954;BME280;26686;50.130;8.710;2024-01-30T13:28:24;101432.56;;;11.90;57.83
40954;BME280;26686;50.130;8.710;2024-01-30T13:33:27;101433.25;;;11.39;60.40
40954;BME280;26686;50.130;8.710;2024-01-30T13:38:29;101447.97;;;11.03;61.34
40954;BME280;26686;50.130;8.710;2024-01-30T13:43:31;101457.81;;;10.59;62.93
40954;BME280;26686;50.130;8.710;2024-01-30T13:48:32;101451.50;;;10.46;64.03
40954;BME280;26686;50.130;8.710;2024-01-30T13:53:34;101438.59;;;10.40;64.31
40954;BME280;26686;50.130;8.710;2024-01-30T13:58:35;101449.94;;;10.27;64.94
40954;BME280;26686;50.130;8.710;2024-01-30T14:03:40;101444.81;;;10.24;65.57
40954;BME280;26686;50.130;8.710;2024-01-30T14:08:42;101449.72;;;10.16;65.80
40954;BME280;26686;50.130;8.710;2024-01-30T14:13:50;101450.19;;;10.08;66.48
40954;BME280;26686;50.130;8.710;2024-01-30T14:18:52;101461.28;;;10.01;66.48
40954;BME280;26686;50.130;8.710;2024-01-30T14:23:53;101445.69;;;9.95;67.23
40954;BME280;26686;50.130;8.710;2024-01-30T14:28:55;101449.28;;;9.94;67.29
40954;BME280;26686;50.130;8.710;2024-01-30T14:33:56;101461.56;;;9.96;67.78
40954;BME280;26686;50.130;8.710;2024-01-30T14:38:59;101462.41;;;9.97;67.93
40954;BME280;26686;50.130;8.710;2024-01-30T14:44:00;101467.72;;;9.97;68.40
40954;BME280;26686;50.130;8.710;2024-01-30T14:49:03;101469.25;;;10.01;68.50
40954;BME280;26686;50.130;8.710;2024-01-30T14:54:09;101457.03;;;9.82;68.61
40954;BME280;26686;50.130;8.710;2024-01-30T14:59:11;101482.84;;;9.96;68.71
40954;BME280;26686;50.130;8.710;2024-01-30T15:04:12;101446.41;;;9.82;69.02
40954;BME280;26686;50.130;8.710;2024-01-30T15:09:14;101456.13;;;9.83;69.40
40954;BME280;26686;50.130;8.710;2024-01-30T15:14:16;101482.34;;;9.89;69.70
40954;BME280;26686;50.130;8.710;2024-01-30T15:19:17;101483.38;;;9.87;69.70
40954;BME280;26686;50.130;8.710;2024-01-30T15:24:19;101492.56;;;9.81;70.31
40954;BME280;26686;50.130;8.710;2024-01-30T15:29:22;101490.25;;;9.75;70.65
40954;BME280;26686;50.130;8.710;2024-01-30T15:34:24;101495.38;;;9.78;70.88
40954;BME280;26686;50.130;8.710;2024-01-30T15:39:26;101496.50;;;9.74;70.66
40954;BME280;26686;50.130;8.710;2024-01-30T15:44:30;101495.31;;;9.80;70.95
40954;BME280;26686;50.130;8.710;2024-01-30T15:49:36;101479.78;;;9.72;71.10
40954;BME280;26686;50.130;8.710;2024-01-30T15:54:37;101499.88;;;9.78;70.96
40954;BME280;26686;50.130;8.710;2024-01-30T15:59:41;101513.16;;;9.78;71.15
40954;BME280;26686;50.130;8.710;2024-01-30T16:04:43;101517.41;;;9.80;71.37
40954;BME280;26686;50.130;8.710;2024-01-30T16:09:47;101513.38;;;9.89;71.23
40954;BME280;26686;50.130;8.710;2024-01-30T16:14:54;101521.38;;;9.89;71.21
40954;BME280;26686;50.130;8.710;2024-01-30T16:19:55;101518.88;;;9.86;71.22
40954;BME280;26686;50.130;8.710;2024-01-30T16:24:57;101514.63;;;9.83;71.47
40954;BME280;26686;50.130;8.710;2024-01-30T16:30:00;101508.25;;;9.86;71.48
40954;BME280;26686;50.130;8.710;2024-01-30T16:35:02;101511.53;;;9.75;71.95
40954;BME280;26686;50.130;8.710;2024-01-30T16:40:06;101488.03;;;9.51;71.99
40954;BME280;26686;50.130;8.710;2024-01-30T16:45:08;101520.16;;;9.79;72.12
40954;BME280;26686;50.130;8.710;2024-01-30T16:50:09;101506.91;;;9.63;72.67
40954;BME280;26686;50.130;8.710;2024-01-30T16:55:12;101524.06;;;9.73;72.80
40954;BME280;26686;50.130;8.710;2024-01-30T17:00:15;101530.13;;;9.75;72.62
40954;BME280;26686;50.130;8.710;2024-01-30T17:05:16;101527.47;;;9.75;72.83
40954;BME280;26686;50.130;8.710;2024-01-30T17:10:27;101535.03;;;9.67;72.99
40954;BME280;26686;50.130;8.710;2024-01-30T17:15:29;101544.19;;;9.77;73.17
40954;BME280;26686;50.130;8.710;2024-01-30T17:20:30;101548.75;;;9.75;73.05
40954;BME280;26686;50.130;8.710;2024-01-30T17:25:32;101544.97;;;9.63;73.32
40954;BME280;26686;50.130;8.710;2024-01-30T17:30:33;101570.09;;;9.73;73.67
40954;BME280;26686;50.130;8.710;2024-01-30T17:35:36;101577.91;;;9.77;73.75
40954;BME280;26686;50.130;8.710;2024-01-30T17:40:37;101587.69;;;9.76;73.53
40954;BME280;26686;50.130;8.710;2024-01-30T17:45:39;101584.97;;;9.78;73.82
40954;BME280;26686;50.130;8.710;2024-01-30T17:50:43;101562.91;;;9.60;74.17
40954;BME280;26686;50.130;8.710;2024-01-30T17:55:47;101538.13;;;9.43;74.62
40954;BME280;26686;50.130;8.710;2024-01-30T18:00:48;101586.84;;;9.60;75.37
40954;BME280;26686;50.130;8.710;2024-01-30T18:05:50;101589.50;;;9.60;75.49
40954;BME280;26686;50.130;8.710;2024-01-30T18:10:52;101592.16;;;9.60;75.80
40954;BME280;26686;50.130;8.710;2024-01-30T18:15:56;101604.66;;;9.58;76.21
40954;BME280;26686;50.130;8.710;2024-01-30T18:21:00;101603.13;;;9.53;77.24
40954;BME280;26686;50.130;8.710;2024-01-30T18:26:02;101606.47;;;9.57;77.24
40954;BME280;26686;50.130;8.710;2024-01-30T18:31:03;101612.22;;;9.65;77.33
40954;BME280;26686;50.130;8.710;2024-01-30T18:36:06;101626.38;;;9.66;77.51
40954;BME280;26686;50.130;8.710;2024-01-30T18:41:07;101624.13;;;9.74;77.57
40954;BME280;26686;50.130;8.710;2024-01-30T18:46:09;101630.94;;;9.80;78.10
40954;BME280;26686;50.130;8.710;2024-01-30T18:51:15;101627.25;;;9.82;78.62
40954;BME280;26686;50.130;8.710;2024-01-30T18:56:17;101636.16;;;9.81;79.09
40954;BME280;26686;50.130;8.710;2024-01-30T19:01:20;101630.84;;;9.81;79.15
40954;BME280;26686;50.130;8.710;2024-01-30T19:06:22;101633.31;;;9.84;79.77
40954;BME280;26686;50.130;8.710;2024-01-30T19:11:23;101642.28;;;9.83;80.38
40954;BME280;26686;50.130;8.710;2024-01-30T19:16:25;101646.03;;;9.79;81.51
40954;BME280;26686;50.130;8.710;2024-01-30T19:21:26;101641.56;;;9.80;81.25
40954;BME280;26686;50.130;8.710;2024-01-30T19:26:29;101641.81;;;9.75;82.15
40954;BME280;26686;50.130;8.710;2024-01-30T19:31:30;101651.34;;;9.79;82.36
40954;BME280;26686;50.130;8.710;2024-01-30T19:36:31;101654.84;;;9.80;82.61
40954;BME280;26686;50.130;8.710;2024-01-30T19:41:35;101666.97;;;9.85;82.52
40954;BME280;26686;50.130;8.710;2024-01-30T19:46:37;101654.09;;;9.78;82.64
40954;BME280;26686;50.130;8.710;2024-01-30T19:51:38;101668.16;;;9.80;83.33
40954;BME280;26686;50.130;8.710;2024-01-30T19:56:40;101669.16;;;9.77;83.40
40954;BME280;26686;50.130;8.710;2024-01-30T20:01:42;101644.66;;;9.72;83.55
40954;BME280;26686;50.130;8.710;2024-01-30T20:06:45;101669.34;;;9.74;83.76
40954;BME280;26686;50.130;8.710;2024-01-30T20:11:46;101652.13;;;9.65;84.12
40954;BME280;26686;50.130;8.710;2024-01-30T20:16:48;101655.97;;;9.76;83.67
40954;BME280;26686;50.130;8.710;2024-01-30T20:21:49;101677.44;;;9.88;83.57
40954;BME280;26686;50.130;8.710;2024-01-30T20:26:51;101686.09;;;9.92;83.41
40954;BME280;26686;50.130;8.710;2024-01-30T20:31:53;101686.34;;;9.87;84.06
40954;BME280;26686;50.130;8.710;2024-01-30T20:36:54;101691.00;;;9.84;84.77
40954;BME280;26686;50.130;8.710;2024-01-30T20:41:56;101676.84;;;9.83;84.70
40954;BME280;26686;50.130;8.710;2024-01-30T20:46:57;101675.72;;;9.87;85.41
40954;BME280;26686;50.130;8.710;2024-01-30T20:51:59;101661.66;;;9.85;86.10
40954;BME280;26686;50.130;8.710;2024-01-30T20:57:03;101673.50;;;9.96;86.05
40954;BME280;26686;50.130;8.710;2024-01-30T21:02:04;101684.91;;;9.98;86.13
40954;BME280;26686;50.130;8.710;2024-01-30T21:07:08;101684.16;;;9.96;86.10
40954;BME280;26686;50.130;8.710;2024-01-30T21:12:12;101684.91;;;9.98;86.35
40954;BME280;26686;50.130;8.710;2024-01-30T21:17:14;101683.97;;;9.99;86.13
40954;BME280;26686;50.130;8.710;2024-01-30T21:22:16;101688.50;;;9.97;86.46
40954;BME280;26686;50.130;8.710;2024-01-30T21:27:20;101672.41;;;10.00;86.25
40954;BME280;26686;50.130;8.710;2024-01-30T21:32:22;101683.81;;;10.02;86.19
40954;BME280;26686;50.130;8.710;2024-01-30T21:37:23;101689.72;;;10.07;85.95
40954;BME280;26686;50.130;8.710;2024-01-30T21:42:25;101702.00;;;10.09;85.79
40954;BME280;26686;50.130;8.710;2024-01-30T21:47:27;101704.22;;;10.17;85.41
40954;BME280;26686;50.130;8.710;2024-01-30T21:52:28;101688.53;;;10.13;85.06
40954;BME280;26686;50.130;8.710;2024-01-30T21:57:30;101710.09;;;10.24;84.84
40954;BME280;26686;50.130;8.710;2024-01-30T22:02:31;101709.19;;;10.23;84.32
40954;BME280;26686;50.130;8.710;2024-01-30T22:07:34;101709.34;;;9.88;84.62
40954;BME280;26686;50.130;8.710;2024-01-30T22:12:35;101711.69;;;9.95;85.07
40954;BME280;26686;50.130;8.710;2024-01-30T22:17:39;101714.53;;;10.07;84.53
40954;BME280;26686;50.130;8.710;2024-01-30T22:22:41;101725.69;;;10.14;84.57
40954;BME280;26686;50.130;8.710;2024-01-30T22:27:42;101731.00;;;10.14;85.42
40954;BME280;26686;50.130;8.710;2024-01-30T22:32:44;101726.53;;;10.15;86.97
40954;BME280;26686;50.130;8.710;2024-01-30T22:37:46;101730.00;;;10.17;87.77
40954;BME280;26686;50.130;8.710;2024-01-30T22:42:49;101731.00;;;10.14;87.68
40954;BME280;26686;50.130;8.710;2024-01-30T22:47:50;101739.28;;;10.25;87.64
40954;BME280;26686;50.130;8.710;2024-01-30T22:52:52;101743.81;;;10.23;87.35
40954;BME280;26686;50.130;8.710;2024-01-30T22:57:53;101738.06;;;10.15;87.88
40954;BME280;26686;50.130;8.710;2024-01-30T23:02:57;101759.94;;;10.20;88.69
40954;BME280;26686;50.130;8.710;2024-01-30T23:07:58;101739.63;;;10.19;89.44
40954;BME280;26686;50.130;8.710;2024-01-30T23:13:00;101752.13;;;10.17;90.38
40954;BME280;26686;50.130;8.710;2024-01-30T23:18:02;101758.38;;;10.16;91.42
40954;BME280;26686;50.130;8.710;2024-01-30T23:23:06;101780.38;;;10.20;91.29
40954;BME280;26686;50.130;8.710;2024-01-30T23:28:09;101773.41;;;10.17;91.84
40954;BME280;26686;50.130;8.710;2024-01-30T23:33:14;101759.34;;;10.15;92.19
40954;BME280;26686;50.130;8.710;2024-01-30T23:38:16;101770.66;;;10.19;91.73
40954;BME280;26686;50.130;8.710;2024-01-30T23:43:17;101772.31;;;10.21;92.41
40954;BME280;26686;50.130;8.710;2024-01-30T23:48:19;101775.56;;;10.26;92.32
40954;BME280;26686;50.130;8.710;2024-01-30T23:53:21;101764.31;;;10.21;91.92
40954;BME280;26686;50.130;8.710;2024-01-30T23:58:22;101787.75;;;10.31;91.87
